To NAV CANADA Home Page Login to a new session Search on AWWS site Feedback and Comments Disclaimer Vers la page française équivalente Tips FAQ What's new on the site To the Forecasts and Observations / NOTAM section To "File a Flight Plan" website Publications and other links Update of the User's profile FIC Telephone Numbers My Weather Data Folder Route Weather Data Regional Weather Data Local Weather Data To the Forecasts and Observations / NOTAM section
Request Generated 08/31/2016 at 15:58:39 UTC . Weather information available at that time is displayed.

METAR/TAF

KINDERSLEY/KINDERSLEY REGIONAL/SK    

METAR CYKY 311500Z 10009KT 15SM FEW050 BKN090 BKN260 14/10 A3003 RMK
SC1AC5CI2 SC TR SLP172 DENSITY ALT 2500FT=
METAR CYKY 311400Z 10012G19KT 15SM FEW050 FEW100 BKN260 13/10 A3004
RMK SC1AC1CI5 SLP175 DENSITY ALT 2300FT=
METAR CYKY 311300Z 09011G16KT 15SM FEW050 FEW100 BKN260 11/09 A3004
RMK SC1AC1CI5 SLP175=

CYKY - No TAF is issued for this station

Your time UTC time
Weather data provided by Environment Canada and NAV CANADA